Mc Indoe Falls, Vermont
Current Conditions -  °F | °C
As of 4:35 AM on Sunday 26 Oct 2014 (Local Time) from KCDA Reporting Station
Broken Clouds Broken Clouds  
Wind Chill:   Ceiling: 2100
Heat Index:   Visibility: 10mi
Dew Point:   Wind: 5mph
Humidity: 91%   Direction: 240°WSW
Pressure: 29.42"   Gusts: NA
Location:  44.2588°N, 72.0585°W
Report Text: KCDA 260835Z AUTO 24004KT 10SM BKN021 BKN110 07/05 A2942 RMK AO2 T00660053
Loading
Personal Weather Stations






























Interactive Weather Map
Tropical Storm Tracking
New forecast layout! Learn more

10-Day Weather Forecast

Advertisements
Track Severe Weather on mobile